createdAt,value
2023-02-14T00:01:30.824Z,1.37
2023-02-14T00:04:00.694Z,1.36
2023-02-14T00:06:29.723Z,1.39
2023-02-14T00:08:57.753Z,1.43
2023-02-14T00:11:25.644Z,1.41
2023-02-14T00:14:10.968Z,1.42
2023-02-14T00:16:40.374Z,1.36
2023-02-14T00:19:08.449Z,1.34
2023-02-14T00:21:38.458Z,1.25
2023-02-14T00:24:25.169Z,-0.54
2023-02-14T00:26:55.067Z,1.30
2023-02-14T00:29:25.400Z,1.37
2023-02-14T00:31:55.277Z,1.33
2023-02-14T00:34:26.014Z,1.27
2023-02-14T00:36:54.106Z,1.31
2023-02-14T00:39:22.154Z,1.21
2023-02-14T00:41:50.076Z,1.25
2023-02-14T00:44:18.472Z,0.96
2023-02-14T00:46:46.618Z,1.19
2023-02-14T00:49:16.099Z,1.12
2023-02-14T00:51:44.491Z,1.16
2023-02-14T00:54:12.715Z,1.07
2023-02-14T00:56:41.009Z,1.02
2023-02-14T00:59:11.007Z,0.98
2023-02-14T01:01:39.490Z,0.98
2023-02-14T01:04:07.949Z,0.99
2023-02-14T01:06:38.016Z,0.95
2023-02-14T01:09:06.383Z,0.90
2023-02-14T01:11:35.149Z,0.93
2023-02-14T01:14:04.050Z,0.87
2023-02-14T01:16:32.670Z,0.96
2023-02-14T01:19:02.077Z,0.90
2023-02-14T01:21:33.015Z,0.94
2023-02-14T01:24:05.490Z,0.79
2023-02-14T01:26:34.392Z,0.91
2023-02-14T01:29:06.745Z,0.87
2023-02-14T01:31:36.622Z,0.76
2023-02-14T01:34:05.804Z,0.75
2023-02-14T01:36:37.130Z,0.83
2023-02-14T01:39:08.794Z,0.69
2023-02-14T01:41:38.976Z,0.21
2023-02-14T01:44:09.652Z,0.77
2023-02-14T01:46:38.863Z,0.76
2023-02-14T01:49:13.084Z,0.75
2023-02-14T01:51:46.485Z,0.78
2023-02-14T01:54:16.665Z,0.73
2023-02-14T01:56:50.550Z,0.57
2023-02-14T01:59:26.031Z,0.50
2023-02-14T02:01:54.510Z,0.63
2023-02-14T02:04:27.158Z,0.57
2023-02-14T02:07:01.049Z,0.56
2023-02-14T02:09:35.159Z,0.58
2023-02-14T02:12:04.360Z,0.42
2023-02-14T02:14:33.220Z,0.58
2023-02-14T02:17:16.374Z,0.53
2023-02-14T02:20:03.530Z,0.53
2023-02-14T02:23:09.170Z,0.52
2023-02-14T02:26:17.444Z,0.50
2023-02-14T02:29:21.359Z,0.44
2023-02-14T02:32:13.845Z,0.42
2023-02-14T02:35:15.532Z,0.47
2023-02-14T02:37:55.948Z,0.38
2023-02-14T02:40:37.304Z,0.33
2023-02-14T02:43:19.378Z,0.25
2023-02-14T02:46:10.266Z,0.29
2023-02-14T02:48:44.704Z,0.28
2023-02-14T02:51:39.453Z,0.18
2023-02-14T02:54:14.403Z,0.19
2023-02-14T02:56:53.406Z,0.18
2023-02-14T02:59:25.563Z,0.16
2023-02-14T03:02:02.942Z,0.13
2023-02-14T03:04:50.919Z,0.03
2023-02-14T03:07:39.393Z,0.06
2023-02-14T03:10:13.718Z,0.01
2023-02-14T03:13:10.677Z,0.08
2023-02-14T03:15:54.996Z,-0.24
2023-02-14T03:18:54.521Z,0.02
2023-02-14T03:21:29.842Z,0.00
2023-02-14T03:24:09.389Z,-0.03
2023-02-14T03:26:46.968Z,0.02
2023-02-14T03:29:22.083Z,0.04
2023-02-14T03:32:00.296Z,-0.03
2023-02-14T03:34:34.938Z,0.00
2023-02-14T03:37:10.358Z,0.02
2023-02-14T03:39:48.760Z,-0.13
2023-02-14T03:42:23.400Z,-0.07
2023-02-14T03:44:55.952Z,-0.19
2023-02-14T03:47:27.333Z,-0.01
2023-02-14T03:50:00.042Z,-0.06
2023-02-14T03:52:30.779Z,-0.09
2023-02-14T03:55:04.014Z,-0.21
2023-02-14T03:57:35.848Z,-0.13
2023-02-14T04:00:05.364Z,-0.15
2023-02-14T04:02:44.051Z,-0.19
2023-02-14T04:05:17.598Z,-0.27
2023-02-14T04:07:47.084Z,-0.34
2023-02-14T04:10:16.505Z,-0.38
2023-02-14T04:12:45.263Z,-0.45
2023-02-14T04:15:14.084Z,-0.66
2023-02-14T04:17:59.908Z,-0.58
2023-02-14T04:20:28.277Z,-0.66
2023-02-14T04:22:56.244Z,-0.82
2023-02-14T04:25:25.582Z,-0.62
2023-02-14T04:27:53.451Z,-0.67
2023-02-14T04:30:22.814Z,-0.71
2023-02-14T04:32:51.143Z,-0.73
2023-02-14T04:35:19.415Z,-0.72
2023-02-14T04:37:47.278Z,-0.80
2023-02-14T04:40:17.268Z,-0.80
2023-02-14T04:42:47.300Z,-0.81
2023-02-14T04:45:15.762Z,-0.82
2023-02-14T04:47:43.679Z,-0.85
2023-02-14T04:50:11.844Z,-0.84
2023-02-14T04:52:39.732Z,-0.86
2023-02-14T04:55:09.225Z,-0.85
2023-02-14T04:57:37.457Z,-0.93
2023-02-14T05:00:08.169Z,-0.86
2023-02-14T05:02:36.127Z,-0.86
2023-02-14T05:05:04.154Z,-0.86
2023-02-14T05:07:32.066Z,-0.87
2023-02-14T05:09:59.959Z,-0.84
2023-02-14T05:12:27.954Z,-0.91
2023-02-14T05:14:56.071Z,-0.82
2023-02-14T05:17:25.354Z,-0.81
2023-02-14T05:19:53.243Z,-0.79
2023-02-14T05:22:21.468Z,-0.78
2023-02-14T05:24:49.358Z,-0.84
2023-02-14T05:27:17.220Z,-0.88
2023-02-14T05:29:45.175Z,-0.88
2023-02-14T05:32:13.053Z,-0.90
2023-02-14T05:34:42.349Z,-0.92
2023-02-14T05:37:10.239Z,-0.96
2023-02-14T05:39:38.127Z,-0.98
2023-02-14T05:42:06.038Z,-0.99
2023-02-14T05:44:33.965Z,-1.34
2023-02-14T05:47:01.881Z,-1.02
2023-02-14T05:49:29.802Z,-1.07
2023-02-14T05:51:59.066Z,-0.96
2023-02-14T05:54:26.926Z,-0.99
2023-02-14T05:56:54.606Z,-0.95
2023-02-14T05:59:22.812Z,-0.98
2023-02-14T06:01:50.723Z,-0.97
2023-02-14T06:04:18.710Z,-0.97
2023-02-14T06:06:46.587Z,-1.08
2023-02-14T06:09:15.907Z,-0.99
2023-02-14T06:11:43.793Z,-0.98
2023-02-14T06:14:11.471Z,-1.00
2023-02-14T06:16:39.359Z,-1.05
2023-02-14T06:19:07.323Z,-1.03
2023-02-14T06:21:35.084Z,-1.03
2023-02-14T06:24:03.252Z,-1.43
2023-02-14T06:26:33.281Z,-1.07
2023-02-14T06:29:01.349Z,-1.00
2023-02-14T06:31:29.473Z,-1.00
2023-02-14T06:33:57.586Z,-0.98
2023-02-14T06:36:26.123Z,-1.02
2023-02-14T06:38:54.043Z,-1.03
2023-02-14T06:41:21.862Z,-1.01
2023-02-14T06:43:51.342Z,-0.98
2023-02-14T06:46:20.053Z,-0.94
2023-02-14T06:48:48.190Z,-0.97
2023-02-14T06:51:16.276Z,-0.92
2023-02-14T06:53:44.174Z,-0.87
2023-02-14T06:56:12.108Z,-0.88
2023-02-14T06:58:40.018Z,-0.83
2023-02-14T07:01:09.307Z,-0.82
2023-02-14T07:03:37.212Z,-0.84
2023-02-14T07:06:05.545Z,-0.82
2023-02-14T07:08:33.408Z,-0.81
2023-02-14T07:11:01.732Z,-0.81
2023-02-14T07:13:29.754Z,-0.77
2023-02-14T07:15:57.858Z,-0.68
2023-02-14T07:18:27.442Z,-0.65
2023-02-14T07:20:55.406Z,-0.63
2023-02-14T07:23:23.672Z,-0.49
2023-02-14T07:25:51.584Z,-0.53
2023-02-14T07:28:19.964Z,-0.47
2023-02-14T07:30:48.542Z,-0.44
2023-02-14T07:33:16.639Z,-0.48
2023-02-14T07:35:45.910Z,-0.39
2023-02-14T07:38:13.922Z,-0.39
2023-02-14T07:40:41.857Z,-0.30
2023-02-14T07:43:09.813Z,-0.30
2023-02-14T07:45:37.735Z,-0.15
2023-02-14T07:48:05.914Z,-0.13
2023-02-14T07:50:33.837Z,-0.02
2023-02-14T07:53:03.189Z,0.08
2023-02-14T07:55:31.411Z,0.22
2023-02-14T07:57:59.615Z,0.85
2023-02-14T08:00:27.802Z,2.56
2023-02-14T08:02:56.222Z,3.08
2023-02-14T08:05:24.194Z,4.05
2023-02-14T08:07:52.349Z,2.97
2023-02-14T08:10:21.724Z,3.81
2023-02-14T08:13:03.464Z,5.46
2023-02-14T08:15:50.674Z,6.03
2023-02-14T08:18:19.340Z,6.07
2023-02-14T08:20:48.683Z,6.42
2023-02-14T08:23:17.318Z,6.97
2023-02-14T08:25:46.632Z,6.61
2023-02-14T08:28:15.038Z,7.86
2023-02-14T08:30:44.050Z,9.18
2023-02-14T08:33:12.375Z,9.05
2023-02-14T08:35:40.441Z,8.97
2023-02-14T08:38:08.412Z,8.60
2023-02-14T08:40:37.346Z,7.16
2023-02-14T08:43:07.429Z,8.12
2023-02-14T08:45:35.646Z,9.47
2023-02-14T08:48:05.547Z,8.02
2023-02-14T08:50:33.864Z,9.55
2023-02-14T08:53:01.869Z,10.99
2023-02-14T08:55:29.847Z,11.71
2023-02-14T08:57:58.281Z,13.13
2023-02-14T09:00:28.219Z,14.61
2023-02-14T09:02:56.297Z,13.39
2023-02-14T09:05:24.347Z,12.60
2023-02-14T09:07:52.610Z,10.54
2023-02-14T09:10:20.591Z,8.88
2023-02-14T09:12:48.702Z,7.31
2023-02-14T09:15:16.814Z,8.17
2023-02-14T09:17:46.205Z,8.52
2023-02-14T09:20:15.820Z,7.35
2023-02-14T09:22:44.455Z,6.89
2023-02-14T09:25:12.716Z,7.30
2023-02-14T09:27:41.390Z,7.22
2023-02-14T09:30:11.390Z,7.08
2023-02-14T09:32:39.537Z,7.24
2023-02-14T09:35:09.796Z,8.40
2023-02-14T09:37:55.081Z,10.52
2023-02-14T09:40:24.072Z,10.62
2023-02-14T09:43:03.912Z,9.55
2023-02-14T09:45:34.410Z,9.30
2023-02-14T09:48:07.417Z,10.30
2023-02-14T09:50:43.475Z,11.83
2023-02-14T09:53:24.092Z,12.23
2023-02-14T09:55:59.441Z,10.60
2023-02-14T09:58:34.833Z,10.94
2023-02-14T10:01:10.878Z,11.16
2023-02-14T10:04:04.332Z,11.83
2023-02-14T10:06:45.442Z,12.80
2023-02-14T10:09:23.899Z,15.21
2023-02-14T10:11:52.906Z,16.97
2023-02-14T10:14:25.185Z,17.91
2023-02-14T10:16:57.445Z,18.24
2023-02-14T10:19:29.800Z,17.09
2023-02-14T10:22:05.397Z,17.36
2023-02-14T10:24:39.445Z,15.34
2023-02-14T10:27:16.738Z,16.91
2023-02-14T10:29:44.796Z,19.31
2023-02-14T10:32:16.875Z,19.73
2023-02-14T10:34:49.122Z,18.94
2023-02-14T10:37:33.338Z,17.39
2023-02-14T10:40:19.116Z,17.04
2023-02-14T10:42:53.535Z,17.30
2023-02-14T10:45:28.951Z,19.67
2023-02-14T10:48:06.866Z,20.68
2023-02-14T10:50:45.421Z,19.78
2023-02-14T10:53:22.853Z,23.14
2023-02-14T10:55:56.944Z,22.63
2023-02-14T10:58:28.985Z,23.67
2023-02-14T11:01:03.292Z,24.29
2023-02-14T11:03:31.858Z,24.99
2023-02-14T11:06:00.567Z,23.49
2023-02-14T11:08:35.304Z,25.02
2023-02-14T11:11:12.433Z,24.92
2023-02-14T11:13:41.609Z,25.41
2023-02-14T11:16:12.517Z,23.80
2023-02-14T11:18:42.769Z,22.59
2023-02-14T11:21:12.733Z,23.02
2023-02-14T11:23:44.289Z,25.78
2023-02-14T11:26:18.473Z,23.89
2023-02-14T11:28:52.811Z,25.09
2023-02-14T11:31:33.179Z,22.93
2023-02-14T11:34:04.997Z,27.70
2023-02-14T11:36:41.185Z,25.40
2023-02-14T11:39:23.592Z,27.04
2023-02-14T11:41:53.696Z,24.45
2023-02-14T11:44:26.326Z,26.93
2023-02-14T11:46:56.886Z,26.23
2023-02-14T11:49:29.603Z,25.90
2023-02-14T11:51:59.760Z,23.78
2023-02-14T11:54:36.733Z,23.20
2023-02-14T11:57:09.907Z,25.97
2023-02-14T11:59:41.961Z,25.33
2023-02-14T12:02:25.199Z,23.39
2023-02-14T12:04:56.854Z,23.53
2023-02-14T12:07:29.622Z,24.07
2023-02-14T12:10:25.857Z,24.28
2023-02-14T12:13:20.827Z,22.34
2023-02-14T12:15:54.436Z,20.88
2023-02-14T12:18:44.252Z,20.52
2023-02-14T12:21:26.143Z,20.77
2023-02-14T12:24:04.383Z,19.71
2023-02-14T12:26:37.742Z,20.25
2023-02-14T12:29:13.897Z,20.78
2023-02-14T12:31:46.317Z,20.49
2023-02-14T12:34:19.969Z,20.98
2023-02-14T12:37:11.175Z,21.09
2023-02-14T12:39:49.695Z,17.78
2023-02-14T12:42:34.952Z,17.56
2023-02-14T12:45:06.199Z,20.70
2023-02-14T12:47:41.347Z,21.03
2023-02-14T12:50:28.281Z,20.82
2023-02-14T12:53:35.983Z,21.97
2023-02-14T12:56:17.298Z,22.13
2023-02-14T12:58:54.441Z,22.64
2023-02-14T13:01:39.045Z,20.62
2023-02-14T13:04:34.112Z,21.73
2023-02-14T13:07:13.426Z,22.88
2023-02-14T13:09:49.922Z,23.80
2023-02-14T13:12:30.762Z,21.08
2023-02-14T13:15:10.907Z,20.50
2023-02-14T13:17:45.311Z,20.93
2023-02-14T13:20:32.385Z,20.34
2023-02-14T13:23:05.759Z,20.83
2023-02-14T13:25:37.276Z,19.97
2023-02-14T13:28:07.649Z,20.66
2023-02-14T13:30:38.662Z,20.39
2023-02-14T13:33:09.722Z,18.71
2023-02-14T13:35:38.570Z,16.86
2023-02-14T13:38:09.479Z,16.85
2023-02-14T13:40:38.604Z,17.44
2023-02-14T13:43:06.723Z,17.71
2023-02-14T13:45:56.154Z,17.69
2023-02-14T13:48:26.772Z,16.74
2023-02-14T13:50:57.778Z,16.02
2023-02-14T13:53:32.382Z,16.55
2023-02-14T13:56:01.226Z,17.05
2023-02-14T13:58:29.686Z,16.82
2023-02-14T14:00:59.132Z,16.78
2023-02-14T14:03:56.662Z,15.52
2023-02-14T14:06:24.544Z,15.55
2023-02-14T14:08:56.225Z,15.77
2023-02-14T14:11:58.027Z,16.76
2023-02-14T14:14:37.158Z,17.51
2023-02-14T14:17:27.624Z,16.68
2023-02-14T14:19:57.792Z,15.52
2023-02-14T14:22:26.994Z,16.78
2023-02-14T14:25:01.071Z,17.43
2023-02-14T14:27:34.522Z,16.82
2023-02-14T14:30:05.984Z,16.12
2023-02-14T14:32:37.416Z,15.48
2023-02-14T14:35:08.864Z,15.50
2023-02-14T14:37:49.711Z,15.22
2023-02-14T14:40:25.485Z,14.39
2023-02-14T14:42:54.427Z,14.94
2023-02-14T14:45:27.770Z,14.31
2023-02-14T14:47:59.494Z,13.79
2023-02-14T14:50:29.815Z,13.59
2023-02-14T14:53:01.970Z,13.21
2023-02-14T14:55:32.804Z,13.06
2023-02-14T14:58:03.834Z,13.05
2023-02-14T15:00:35.451Z,12.92
2023-02-14T15:03:08.458Z,12.65
2023-02-14T15:05:39.272Z,12.75
2023-02-14T15:08:18.292Z,13.17
2023-02-14T15:10:52.436Z,12.64
2023-02-14T15:13:38.298Z,12.50
2023-02-14T15:16:06.944Z,12.53
2023-02-14T15:18:36.483Z,12.23
2023-02-14T15:21:07.043Z,12.17
2023-02-14T15:23:36.006Z,11.90
2023-02-14T15:26:04.535Z,11.79
2023-02-14T15:28:35.414Z,11.50
2023-02-14T15:31:06.470Z,11.66
2023-02-14T15:33:37.077Z,11.62
2023-02-14T15:36:09.009Z,11.70
2023-02-14T15:38:42.062Z,11.33
2023-02-14T15:41:11.128Z,11.04
2023-02-14T15:43:40.134Z,10.95
2023-02-14T15:46:20.786Z,10.78
2023-02-14T15:48:51.334Z,10.52
2023-02-14T15:51:22.867Z,10.29
2023-02-14T15:53:53.908Z,10.09
2023-02-14T15:56:26.185Z,9.94
2023-02-14T15:59:01.385Z,9.84
2023-02-14T16:01:30.811Z,9.59
2023-02-14T16:04:02.708Z,9.50
2023-02-14T16:06:34.194Z,9.28
2023-02-14T16:09:03.056Z,9.22
2023-02-14T16:11:35.383Z,9.12
2023-02-14T16:14:22.068Z,8.99
2023-02-14T16:17:01.396Z,8.75
2023-02-14T16:19:36.017Z,8.69
2023-02-14T16:22:04.675Z,8.64
2023-02-14T16:24:32.716Z,8.54
2023-02-14T16:27:06.731Z,8.40
2023-02-14T16:29:36.538Z,8.18
2023-02-14T16:32:16.924Z,8.13
2023-02-14T16:34:48.295Z,8.02
2023-02-14T16:37:22.314Z,7.86
2023-02-14T16:39:52.066Z,7.77
2023-02-14T16:42:20.767Z,7.67
2023-02-14T16:44:49.242Z,7.55
2023-02-14T16:47:19.204Z,7.44
2023-02-14T16:49:50.564Z,7.35
2023-02-14T16:52:23.715Z,7.27
2023-02-14T16:54:52.277Z,7.14
2023-02-14T16:57:23.710Z,7.06
2023-02-14T16:59:52.230Z,6.98
2023-02-14T17:02:20.330Z,6.58
2023-02-14T17:04:49.778Z,6.79
2023-02-14T17:07:17.750Z,6.70
2023-02-14T17:09:51.092Z,6.66
2023-02-14T17:12:23.459Z,6.57
2023-02-14T17:14:55.640Z,6.46
2023-02-14T17:17:23.638Z,6.40
2023-02-14T17:19:53.214Z,6.28
2023-02-14T17:22:21.822Z,6.20
2023-02-14T17:24:49.772Z,6.09
2023-02-14T17:27:17.697Z,5.99
2023-02-14T17:29:45.776Z,5.94
2023-02-14T17:32:14.229Z,5.88
2023-02-14T17:34:42.276Z,5.82
2023-02-14T17:37:11.707Z,5.78
2023-02-14T17:39:40.017Z,5.68
2023-02-14T17:42:09.443Z,5.55
2023-02-14T17:44:38.492Z,5.45
2023-02-14T17:47:07.119Z,5.40
2023-02-14T17:49:35.245Z,5.33
2023-02-14T17:52:03.259Z,5.22
2023-02-14T17:54:36.941Z,5.26
2023-02-14T17:57:05.554Z,5.25
2023-02-14T17:59:33.858Z,5.16
2023-02-14T18:02:01.924Z,5.09
2023-02-14T18:04:30.452Z,4.93
2023-02-14T18:06:58.516Z,4.93
2023-02-14T18:09:26.729Z,4.87
2023-02-14T18:11:56.114Z,4.80
2023-02-14T18:14:24.534Z,4.80
2023-02-14T18:16:52.472Z,4.73
2023-02-14T18:19:20.315Z,4.71
2023-02-14T18:21:48.320Z,4.62
2023-02-14T18:24:16.382Z,4.55
2023-02-14T18:26:44.616Z,4.45
2023-02-14T18:29:15.028Z,4.38
2023-02-14T18:31:44.638Z,4.34
2023-02-14T18:34:12.792Z,4.29
2023-02-14T18:36:41.890Z,4.23
2023-02-14T18:39:10.359Z,4.16
2023-02-14T18:41:38.197Z,4.10
2023-02-14T18:44:06.842Z,4.04
2023-02-14T18:46:37.479Z,4.00
2023-02-14T18:49:07.563Z,3.95
2023-02-14T18:51:39.155Z,3.86
2023-02-14T18:54:07.937Z,3.87
2023-02-14T18:56:38.371Z,3.75
2023-02-14T18:59:09.470Z,3.72
2023-02-14T19:01:41.853Z,3.62
2023-02-14T19:04:12.190Z,3.63
2023-02-14T19:06:41.870Z,3.63
2023-02-14T19:09:12.090Z,3.53
2023-02-14T19:11:40.414Z,3.49
2023-02-14T19:14:10.450Z,3.38
2023-02-14T19:16:43.813Z,3.43
2023-02-14T19:19:12.230Z,3.36
2023-02-14T19:21:40.117Z,3.32
2023-02-14T19:24:08.761Z,3.28
2023-02-14T19:26:40.424Z,3.22
2023-02-14T19:29:11.314Z,3.17
2023-02-14T19:31:42.811Z,3.12
2023-02-14T19:34:17.227Z,3.15
2023-02-14T19:36:45.302Z,3.10
2023-02-14T19:39:14.020Z,3.08
2023-02-14T19:41:42.071Z,3.05
2023-02-14T19:44:13.649Z,2.97
2023-02-14T19:46:44.130Z,2.91
2023-02-14T19:49:15.051Z,2.85
2023-02-14T19:51:43.060Z,2.84
2023-02-14T19:54:12.464Z,2.85
2023-02-14T19:56:42.531Z,2.77
2023-02-14T19:59:10.930Z,2.77
2023-02-14T20:01:41.861Z,2.60
2023-02-14T20:04:14.626Z,2.65
2023-02-14T20:06:43.479Z,2.52
2023-02-14T20:09:12.073Z,2.58
2023-02-14T20:11:46.649Z,2.64
2023-02-14T20:14:17.493Z,2.62
2023-02-14T20:16:45.854Z,2.61
2023-02-14T20:19:17.583Z,2.55
2023-02-14T20:21:47.456Z,2.45
2023-02-14T20:24:20.176Z,2.49
2023-02-14T20:26:48.933Z,2.48
2023-02-14T20:29:18.245Z,2.42
2023-02-14T20:31:48.922Z,2.37
2023-02-14T20:34:18.525Z,2.38
2023-02-14T20:36:49.629Z,2.33
2023-02-14T20:39:17.640Z,2.25
2023-02-14T20:41:49.827Z,2.21
2023-02-14T20:44:21.333Z,2.19
2023-02-14T20:46:50.366Z,2.15
2023-02-14T20:49:20.354Z,2.04
2023-02-14T20:51:50.159Z,1.95
2023-02-14T20:54:18.529Z,1.92
2023-02-14T20:56:46.709Z,1.92
2023-02-14T20:59:15.581Z,1.86
2023-02-14T21:01:43.657Z,1.77
2023-02-14T21:04:11.775Z,1.83
2023-02-14T21:06:42.339Z,1.68
2023-02-14T21:09:10.363Z,1.77
2023-02-14T21:11:38.355Z,1.80
2023-02-14T21:14:06.258Z,1.74
2023-02-14T21:16:34.398Z,1.69
2023-02-14T21:19:02.429Z,1.63
2023-02-14T21:21:34.651Z,1.65
2023-02-14T21:24:05.732Z,1.58
2023-02-14T21:26:33.746Z,1.44
2023-02-14T21:29:02.634Z,1.54
2023-02-14T21:31:31.538Z,1.48
2023-02-14T21:34:01.286Z,1.43
2023-02-14T21:36:31.530Z,1.43
2023-02-14T21:39:00.801Z,1.31
2023-02-14T21:41:32.174Z,1.36
2023-02-14T21:44:01.493Z,1.35
2023-02-14T21:46:31.458Z,1.36
2023-02-14T21:49:19.027Z,1.39
2023-02-14T21:51:47.548Z,1.48
2023-02-14T21:54:16.219Z,1.26
2023-02-14T21:56:45.957Z,1.61
2023-02-14T21:59:13.995Z,1.71
2023-02-14T22:01:43.356Z,1.64
2023-02-14T22:04:12.908Z,1.67
2023-02-14T22:06:42.594Z,1.52
2023-02-14T22:09:11.341Z,1.68
2023-02-14T22:11:39.517Z,1.77
2023-02-14T22:14:09.138Z,1.64
2023-02-14T22:16:38.119Z,1.60
2023-02-14T22:19:07.135Z,1.71
2023-02-14T22:21:35.875Z,1.82
2023-02-14T22:24:04.902Z,1.82
2023-02-14T22:26:38.669Z,1.76
2023-02-14T22:29:09.896Z,1.56
2023-02-14T22:31:40.179Z,1.63
2023-02-14T22:34:09.920Z,1.57
2023-02-14T22:36:38.456Z,1.75
2023-02-14T22:39:07.376Z,1.69
2023-02-14T22:41:37.669Z,1.04
2023-02-14T22:44:06.936Z,1.27
2023-02-14T22:46:37.629Z,1.59
2023-02-14T22:49:06.612Z,1.52
2023-02-14T22:51:36.103Z,1.48
2023-02-14T22:54:06.134Z,1.46
2023-02-14T22:56:35.585Z,1.55
2023-02-14T22:59:05.942Z,1.51
2023-02-14T23:01:36.558Z,1.48
2023-02-14T23:04:05.810Z,1.31
2023-02-14T23:06:36.264Z,1.32
2023-02-14T23:09:05.752Z,1.40
2023-02-14T23:11:35.611Z,1.45
2023-02-14T23:14:21.770Z,1.47
2023-02-14T23:17:20.306Z,1.33
2023-02-14T23:20:06.370Z,1.24
2023-02-14T23:22:36.037Z,1.18
2023-02-14T23:25:07.468Z,1.23
2023-02-14T23:27:38.623Z,1.25
2023-02-14T23:30:07.880Z,1.20
2023-02-14T23:32:37.352Z,0.82
2023-02-14T23:35:05.515Z,1.14
2023-02-14T23:37:33.765Z,1.31
2023-02-14T23:40:01.865Z,1.30
2023-02-14T23:42:29.868Z,1.28
2023-02-14T23:45:18.702Z,1.56
2023-02-14T23:47:48.114Z,1.76
2023-02-14T23:50:16.156Z,1.86
2023-02-14T23:52:44.516Z,1.83
2023-02-14T23:55:13.163Z,1.72
2023-02-14T23:57:41.256Z,2.21
